DuBois Regional Airport
KDUJ : rendu visible

Aérodrome :











RETROUVEZ-NOUS SUR...

 
LOGIN :

S'inscrire | Disclaimer

   EN    FR    IT 

 









Légende :    VFR   VFR Marginal   IFR   IFR Intensif   IFR Très Intensif
Visi : 
Plafond : 
>= 8 km
>= 3000ft
5 à 8 km
1000 à 3000 ft
1500m à 5 km
500 à 1000 ft
800 à 1500m
200 à 500 ft
< 800m
< 200 ft
Symboles :   Orages  Brouillard  Fortes neiges  Fortes précipitations  Vent > 20 kt






- Altitude de l'aérodrome : 1817 ft
- Code IATA : DUJ


KDUJ - DuBois Regional

DERNIER METAR :
  • 250453Z AUTO 14009KT 10SM BKN065 OVC080 04/M03 A3015 RMK AO2 SLP221 T00391033 400501044

METARs EXPIRÉS :
  • 250353Z AUTO 13010KT 10SM OVC070 04/M04 A3016 RMK AO2 SLP226 T00391039
  • 250253Z AUTO 12009KT 10SM OVC060 04/M04 A3019 RMK AO2 SLP236 T00391039 56016

TAF KDUJ
Valide du 25 à 00h jusqu'au 26 à 00h UTC


242344Z 2500/2524 13005KT 6SM -SN BKN025
FM250100 13005KT P6SM OVC050
FM251100 16007KT P6SM SCT200 WS020/22030KT
FM251500 18008G16KT P6SM VCSH BKN070
FM251800 17008G17KT 3SM SHRA BKN015 WS020/22035KT
FIR KZOB / Amérique du Nord



MET'MAP, la Météo Aéronautique d'un coup d'oeil ! - Copyright ORBIFLY Décembre 2007 - Disclaimer

ORBIFLY MET'MAP TEAM :

Programmation & Développement : Alexandra Zaïnal
Sur une idée originale de : Baudouin d'Aumeries
Assistance à la programmation : Marc-Olivier Méhu
Soutien technique & logistique : Manuel Goepfert

Contact : metmap@orbifly.com




SOURCES & CREDITS :

   NOAA       Earth
Advisory